Monday, January 22, 2018, 8:56 AM EST
Back to Local

KDMH, Baltimore Downtown

Location: Baltimore, MD, United States Lat: 39.283
Local Time: 8:56 AM EST (13:56 GMT) Lon: -76.617
Time Zone: US/Eastern Elev: 19 ft

Show me the last for .
Show Coded

Time T Td Feel RH Dir Speed Gust Alt SLP Vis Weather Sky Remarks
2018-01-22 07:54 46 38 - 73 - - - 30.15 30.14 0 None
2018-01-22 06:54 47 38 - 70 - - - 30.14 30.13 0 6-hr Min Temp (7am): 43.0°F
6-hr Max Temp (7am): 46.9°F
2018-01-22 05:54 47 38 - 70 - - - 30.13 30.13 0 None
2018-01-22 04:54 46 38 - 73 - - - 30.12 30.12 0 None
2018-01-22 03:54 45 38 - 76 - - - 30.12 30.12 0 None
2018-01-22 02:54 44 38 - 78 - - - 30.13 30.13 0 None
2018-01-22 01:54 45 38 - 76 - - - 30.13 30.12 0 None
2018-01-22 00:54 47 38 - 70 - - - 30.13 30.13 0 6-hr Min Temp (1am): 44.1°F
6-hr Max Temp (1am): 51.1°F
2018-01-21 23:54 44 38 - 78 - - - 30.14 30.14 0 24-hr Min Temp (12am): 39.0°F
24-hr Max Temp (12am): 55.0°F
2018-01-21 22:54 48 38 - 67 - - - 30.15 30.15 0 None
2018-01-21 21:54 48 38 - 67 - - - 30.15 30.15 0 None
2018-01-21 20:54 49 38 - 65 - - - 30.16 30.16 0 None
2018-01-21 19:54 50 38 - 63 - - - 30.16 30.16 0 None
2018-01-21 18:54 50 37 - 60 - - - 30.16 30.16 0 6-hr Min Temp (7pm): 50.0°F
6-hr Max Temp (7pm): 55.0°F
2018-01-21 17:54 51 37 - 58 - - - 30.16 30.16 0 None
2018-01-21 16:54 51 37 - 58 - - - 30.16 30.16 0 None
2018-01-21 15:54 53 37 - 54 - - - 30.16 30.16 0 None
2018-01-21 14:54 54 36 - 50 - - - 30.16 30.16 0 None
2018-01-21 13:54 53 36 - 52 - - - 30.16 30.16 0 None
2018-01-21 12:54 53 37 - 54 - - - 30.17 30.17 0 6-hr Min Temp (1pm): 39.9°F
6-hr Max Temp (1pm): 53.1°F
2018-01-21 11:54 47 36 - 65 - - - 30.21 30.21 0 None
2018-01-21 10:54 48 36 - 62 - - - 30.23 30.22 0 None
2018-01-21 09:54 44 36 - 72 - - - 30.23 30.22 0 None

Support USWX by starting your Amazon purchase here.